createdAt,value
2022-08-03T00:00:43.747Z,11.50
2022-08-03T00:03:12.985Z,9.07
2022-08-03T00:06:04.857Z,6.87
2022-08-03T00:11:29.075Z,8.33
2022-08-03T00:13:58.147Z,8.10
2022-08-03T00:16:27.207Z,14.23
2022-08-03T00:18:56.356Z,8.60
2022-08-03T00:21:25.365Z,6.80
2022-08-03T00:23:56.028Z,7.13
2022-08-03T00:26:25.226Z,8.47
2022-08-03T00:28:54.463Z,9.27
2022-08-03T00:31:39.907Z,6.37
2022-08-03T00:34:12.807Z,6.20
2022-08-03T00:36:42.527Z,8.83
2022-08-03T00:39:13.033Z,7.33
2022-08-03T00:41:41.945Z,8.10
2022-08-03T00:44:11.068Z,9.03
2022-08-03T00:46:40.027Z,8.53
2022-08-03T00:49:09.439Z,7.97
2022-08-03T00:51:38.530Z,9.90
2022-08-03T00:54:07.507Z,8.87
2022-08-03T00:56:39.146Z,9.10
2022-08-03T00:59:31.014Z,6.93
2022-08-03T01:02:00.181Z,6.83
2022-08-03T01:04:29.067Z,6.90
2022-08-03T01:07:10.690Z,7.10
2022-08-03T01:16:01.131Z,8.20
2022-08-03T01:18:36.341Z,7.80
2022-08-03T01:21:12.671Z,5.77
2022-08-03T01:24:00.702Z,8.03
2022-08-03T01:26:58.117Z,9.37
2022-08-03T01:29:54.277Z,8.43
2022-08-03T01:33:02.303Z,6.63
2022-08-03T01:35:28.910Z,8.53
2022-08-03T01:38:04.749Z,7.73
2022-08-03T01:40:38.921Z,6.07
2022-08-03T01:43:11.119Z,7.37
2022-08-03T01:45:43.301Z,7.73
2022-08-03T01:48:14.791Z,8.37
2022-08-03T01:50:47.544Z,8.17
2022-08-03T01:53:18.944Z,5.53
2022-08-03T01:55:51.832Z,8.20
2022-08-03T01:58:24.080Z,8.43
2022-08-03T02:00:59.812Z,7.00
2022-08-03T02:03:32.246Z,7.17
2022-08-03T02:06:59.188Z,7.20
2022-08-03T02:08:56.185Z,7.67
2022-08-03T02:11:30.232Z,7.03
2022-08-03T02:14:00.298Z,7.77
2022-08-03T02:16:39.743Z,6.50
2022-08-03T02:22:35.366Z,8.77
2022-08-03T02:27:41.766Z,6.83
2022-08-03T02:30:14.307Z,7.77
2022-08-03T02:40:04.275Z,6.43
2022-08-03T02:42:36.761Z,5.43
2022-08-03T02:45:09.975Z,5.40
2022-08-03T02:47:54.147Z,4.83
2022-08-03T02:50:27.875Z,6.17
2022-08-03T02:52:59.500Z,4.80
2022-08-03T02:55:32.645Z,3.90
2022-08-03T02:58:03.207Z,4.30
2022-08-03T03:00:35.430Z,4.90
2022-08-03T03:03:06.661Z,4.90
2022-08-03T03:05:54.450Z,6.10
2022-08-03T03:08:29.227Z,4.60
2022-08-03T03:11:02.553Z,4.00
2022-08-03T03:13:32.826Z,4.63
2022-08-03T03:16:04.216Z,3.60
2022-08-03T03:18:34.787Z,2.90
2022-08-03T03:21:05.750Z,3.03
2022-08-03T03:23:39.070Z,7.03
2022-08-03T03:26:10.783Z,4.43
2022-08-03T03:28:40.162Z,3.87
2022-08-03T03:31:09.934Z,4.17
2022-08-03T03:33:39.670Z,6.17
2022-08-03T03:36:09.335Z,4.17
2022-08-03T03:38:39.225Z,5.20
2022-08-03T03:41:09.855Z,5.50
2022-08-03T03:43:38.824Z,4.07
2022-08-03T03:46:07.975Z,6.30
2022-08-03T03:48:36.892Z,3.70
2022-08-03T03:51:05.982Z,4.70
2022-08-03T03:53:34.915Z,5.00
2022-08-03T03:56:04.054Z,5.27
2022-08-03T03:58:35.015Z,6.47
2022-08-03T04:01:03.997Z,4.23
2022-08-03T04:03:32.934Z,3.80
2022-08-03T04:06:19.344Z,5.47
2022-08-03T04:09:05.885Z,5.83
2022-08-03T04:11:41.229Z,7.03
2022-08-03T04:14:14.759Z,9.13
2022-08-03T04:16:48.058Z,5.80
2022-08-03T04:19:23.272Z,4.87
2022-08-03T04:21:56.924Z,8.03
2022-08-03T04:24:31.575Z,6.20
2022-08-03T04:27:02.622Z,5.43
2022-08-03T04:29:34.948Z,7.40
2022-08-03T04:32:09.813Z,5.50
2022-08-03T04:34:39.051Z,5.30
2022-08-03T04:37:12.901Z,4.90
2022-08-03T04:39:44.221Z,5.60
2022-08-03T04:42:16.499Z,6.00
2022-08-03T04:44:48.402Z,7.17
2022-08-03T04:47:18.196Z,6.33
2022-08-03T04:49:47.727Z,5.23
2022-08-03T04:52:17.082Z,8.70
2022-08-03T04:54:50.824Z,6.70
2022-08-03T04:57:22.663Z,9.00
2022-08-03T05:00:01.376Z,9.83
2022-08-03T05:02:31.248Z,7.87
2022-08-03T05:05:00.272Z,5.67
2022-08-03T05:07:34.083Z,4.57
2022-08-03T05:10:14.729Z,6.57
2022-08-03T05:12:44.382Z,5.43
2022-08-03T05:15:15.158Z,4.17
2022-08-03T05:17:44.248Z,7.10
2022-08-03T05:20:16.653Z,4.87
2022-08-03T05:22:48.090Z,6.00
2022-08-03T05:25:19.866Z,5.37
2022-08-03T05:27:49.623Z,6.37
2022-08-03T05:30:30.451Z,5.83
2022-08-03T05:33:03.070Z,6.90
2022-08-03T05:36:03.609Z,5.10
2022-08-03T05:51:14.016Z,5.03
2022-08-03T05:53:43.488Z,5.17
2022-08-03T05:56:14.119Z,5.47
2022-08-03T05:58:45.086Z,5.57
2022-08-03T06:01:14.428Z,3.60
2022-08-03T06:03:43.378Z,5.03
2022-08-03T06:06:14.063Z,4.90
2022-08-03T06:08:43.485Z,4.07
2022-08-03T06:11:12.918Z,6.13
2022-08-03T06:13:42.116Z,4.90
2022-08-03T06:16:11.335Z,6.63
2022-08-03T06:18:41.153Z,4.43
2022-08-03T06:21:15.255Z,4.77
2022-08-03T06:23:54.240Z,3.97
2022-08-03T06:26:28.856Z,6.30
2022-08-03T06:28:57.798Z,3.50
2022-08-03T06:31:32.731Z,3.73
2022-08-03T06:34:33.834Z,3.37
2022-08-03T06:37:01.723Z,3.37
2022-08-03T06:39:32.575Z,6.60
2022-08-03T06:42:01.485Z,8.97
2022-08-03T06:44:30.337Z,4.40
2022-08-03T06:46:59.295Z,3.67
2022-08-03T06:49:28.373Z,3.07
2022-08-03T06:52:04.147Z,3.77
2022-08-03T06:54:37.627Z,3.50
2022-08-03T06:57:08.577Z,3.00
2022-08-03T07:00:06.621Z,3.70
2022-08-03T07:02:28.354Z,3.13
2022-08-03T07:05:00.480Z,3.40
2022-08-03T07:07:29.413Z,3.30
2022-08-03T07:09:59.771Z,3.37
2022-08-03T07:12:30.484Z,3.23
2022-08-03T07:15:02.683Z,3.10
2022-08-03T07:17:33.261Z,3.13
2022-08-03T07:20:03.898Z,3.00
2022-08-03T07:22:32.902Z,3.73
2022-08-03T07:25:03.385Z,3.37
2022-08-03T07:27:33.249Z,2.87
2022-08-03T07:30:02.096Z,4.93
2022-08-03T07:32:31.944Z,2.67
2022-08-03T07:35:01.568Z,4.43
2022-08-03T07:37:31.457Z,2.87
2022-08-03T07:40:00.896Z,2.73
2022-08-03T07:42:32.039Z,4.97
2022-08-03T07:45:01.385Z,2.43
2022-08-03T07:47:35.359Z,4.40
2022-08-03T07:50:08.689Z,4.40
2022-08-03T07:52:54.739Z,2.60
2022-08-03T07:55:25.644Z,3.80
2022-08-03T07:58:07.323Z,2.90
2022-08-03T08:00:36.401Z,3.33
2022-08-03T08:03:05.774Z,2.43
2022-08-03T08:05:34.808Z,4.33
2022-08-03T08:08:04.188Z,4.10
2022-08-03T08:10:34.234Z,2.97
2022-08-03T08:13:05.392Z,2.30
2022-08-03T08:15:34.433Z,4.10
2022-08-03T08:18:03.874Z,3.63
2022-08-03T08:20:35.805Z,3.63
2022-08-03T08:23:15.759Z,2.70
2022-08-03T08:25:57.847Z,2.63
2022-08-03T08:28:32.783Z,2.37
2022-08-03T08:31:02.547Z,3.43
2022-08-03T08:36:20.876Z,2.40
2022-08-03T08:38:50.328Z,2.23
2022-08-03T08:41:19.682Z,2.33
2022-08-03T08:43:49.961Z,2.33
2022-08-03T08:46:23.104Z,4.18
2022-08-03T08:48:54.421Z,2.00
2022-08-03T08:51:59.334Z,1.90
2022-08-03T08:54:20.180Z,2.53
2022-08-03T08:56:50.380Z,2.72
2022-08-03T08:59:21.811Z,3.53
2022-08-03T09:01:50.769Z,2.28
2022-08-03T09:04:20.110Z,2.05
2022-08-03T09:07:10.607Z,4.43
2022-08-03T09:10:10.637Z,3.35
2022-08-03T09:12:42.954Z,3.28
2022-08-03T09:15:25.019Z,2.47
2022-08-03T09:17:55.673Z,2.40
2022-08-03T09:20:26.221Z,2.35
2022-08-03T09:22:58.229Z,3.60
2022-08-03T09:25:34.823Z,3.00
2022-08-03T09:28:12.204Z,2.00
2022-08-03T09:30:45.054Z,2.70
2022-08-03T09:33:16.589Z,2.42
2022-08-03T09:35:55.033Z,3.08
2022-08-03T09:38:27.903Z,2.42
2022-08-03T09:41:00.278Z,2.50
2022-08-03T09:43:29.690Z,2.20
2022-08-03T09:46:07.844Z,2.25
2022-08-03T09:48:37.637Z,2.70
2022-08-03T09:51:13.363Z,3.83
2022-08-03T09:54:00.561Z,4.30
2022-08-03T09:56:43.910Z,2.85
2022-08-03T09:59:13.560Z,2.17
2022-08-03T10:01:43.972Z,2.60
2022-08-03T10:04:17.398Z,4.15
2022-08-03T10:06:47.131Z,2.50
2022-08-03T10:09:17.665Z,3.30
2022-08-03T10:11:47.970Z,2.83
2022-08-03T10:14:20.198Z,3.70
2022-08-03T10:16:51.119Z,3.40
2022-08-03T10:19:20.102Z,3.10
2022-08-03T10:21:52.706Z,2.70
2022-08-03T10:24:27.594Z,3.03
2022-08-03T10:27:03.190Z,2.78
2022-08-03T10:29:36.352Z,2.63
2022-08-03T10:32:16.161Z,3.78
2022-08-03T10:34:46.781Z,3.30
2022-08-03T10:37:19.237Z,2.67
2022-08-03T10:39:56.569Z,2.60
2022-08-03T10:42:28.112Z,2.60
2022-08-03T10:45:04.909Z,2.92
2022-08-03T10:47:36.905Z,3.42
2022-08-03T10:50:07.770Z,2.50
2022-08-03T10:52:41.287Z,3.08
2022-08-03T10:55:54.697Z,2.70
2022-08-03T10:58:57.381Z,2.50
2022-08-03T11:02:00.288Z,2.47
2022-08-03T11:04:31.787Z,3.15
2022-08-03T11:07:23.682Z,2.60
2022-08-03T11:09:54.228Z,2.67
2022-08-03T11:12:29.845Z,2.50
2022-08-03T11:15:02.663Z,2.60
2022-08-03T11:17:31.720Z,2.60
2022-08-03T11:20:02.203Z,2.75
2022-08-03T11:22:51.205Z,2.60
2022-08-03T11:25:54.076Z,2.42
2022-08-03T11:28:30.677Z,2.35
2022-08-03T11:31:50.866Z,2.33
2022-08-03T11:34:20.656Z,3.22
2022-08-03T11:37:29.932Z,4.63
2022-08-03T11:40:03.110Z,2.42
2022-08-03T11:42:42.023Z,2.63
2022-08-03T11:45:12.641Z,3.17
2022-08-03T11:47:50.987Z,2.35
2022-08-03T11:50:21.637Z,2.72
2022-08-03T11:52:52.865Z,2.47
2022-08-03T11:55:24.310Z,2.17
2022-08-03T11:59:11.019Z,3.50
2022-08-03T12:00:49.385Z,2.50
2022-08-03T12:03:19.652Z,2.08
2022-08-03T12:05:51.652Z,2.10
2022-08-03T12:08:32.706Z,3.22
2022-08-03T12:11:04.797Z,2.38
2022-08-03T12:14:28.911Z,2.20
2022-08-03T12:16:30.750Z,2.22
2022-08-03T12:19:01.096Z,2.83
2022-08-03T12:21:30.903Z,2.03
2022-08-03T12:24:02.548Z,4.63
2022-08-03T12:26:32.465Z,2.65
2022-08-03T12:29:01.407Z,2.40
2022-08-03T12:31:30.268Z,2.38
2022-08-03T12:34:03.155Z,2.30
2022-08-03T12:36:33.786Z,2.45
2022-08-03T12:39:07.417Z,3.10
2022-08-03T12:41:37.734Z,2.13
2022-08-03T12:44:08.584Z,2.35
2022-08-03T12:46:45.395Z,2.20
2022-08-03T12:49:20.623Z,2.40
2022-08-03T12:52:05.325Z,2.55
2022-08-03T12:54:37.718Z,2.60
2022-08-03T12:57:08.766Z,2.05
2022-08-03T12:59:52.769Z,2.42
2022-08-03T13:02:24.533Z,2.13
2022-08-03T13:04:55.320Z,1.95
2022-08-03T13:07:24.466Z,1.92
2022-08-03T13:09:56.587Z,2.10
2022-08-03T13:12:27.035Z,2.20
2022-08-03T13:14:59.285Z,2.45
2022-08-03T13:17:28.987Z,2.20
2022-08-03T13:19:58.546Z,2.15
2022-08-03T13:22:29.228Z,2.70
2022-08-03T13:25:01.416Z,2.85
2022-08-03T13:28:03.893Z,1.92
2022-08-03T13:30:30.167Z,1.92
2022-08-03T13:33:00.815Z,2.13
2022-08-03T13:35:29.726Z,2.22
2022-08-03T13:37:58.587Z,2.22
2022-08-03T13:40:30.262Z,1.95
2022-08-03T13:42:59.536Z,2.35
2022-08-03T13:45:29.546Z,3.25
2022-08-03T13:47:58.427Z,2.25
2022-08-03T13:50:27.412Z,2.63
2022-08-03T13:52:56.339Z,3.03
2022-08-03T13:55:25.621Z,2.55
2022-08-03T13:58:03.026Z,2.05
2022-08-03T14:00:36.241Z,3.13
2022-08-03T14:03:13.125Z,2.58
2022-08-03T14:05:43.440Z,2.00
2022-08-03T14:08:12.726Z,2.95
2022-08-03T14:10:43.440Z,2.90
2022-08-03T14:13:17.583Z,2.55
2022-08-03T14:15:52.887Z,2.40
2022-08-03T14:18:28.733Z,2.25
2022-08-03T14:21:06.677Z,2.30
2022-08-03T14:23:36.689Z,2.50
2022-08-03T14:26:06.057Z,3.53
2022-08-03T14:28:36.801Z,2.22
2022-08-03T14:31:08.299Z,3.75
2022-08-03T14:33:54.751Z,2.85
2022-08-03T14:36:23.547Z,3.63
2022-08-03T14:38:52.684Z,2.78
2022-08-03T14:41:21.612Z,2.25
2022-08-03T14:44:00.633Z,2.53
2022-08-03T14:46:31.648Z,3.63
2022-08-03T14:50:28.637Z,2.53
2022-08-03T14:51:53.336Z,2.17
2022-08-03T14:54:23.581Z,2.47
2022-08-03T14:56:52.718Z,3.17
2022-08-03T14:59:23.067Z,2.80
2022-08-03T15:02:04.360Z,3.40
2022-08-03T15:04:35.505Z,2.67
2022-08-03T15:07:04.403Z,2.55
2022-08-03T15:09:33.512Z,3.90
2022-08-03T15:12:02.595Z,3.85
2022-08-03T15:14:33.310Z,2.67
2022-08-03T15:17:03.751Z,3.10
2022-08-03T15:20:00.341Z,4.60
2022-08-03T15:22:25.437Z,2.70
2022-08-03T15:25:04.190Z,2.65
2022-08-03T15:28:03.306Z,2.30
2022-08-03T15:30:37.201Z,2.67
2022-08-03T15:33:06.789Z,2.55
2022-08-03T15:35:35.800Z,3.00
2022-08-03T15:38:09.086Z,3.00
2022-08-03T15:40:38.733Z,3.72
2022-08-03T15:43:07.770Z,3.65
2022-08-03T15:45:38.732Z,2.83
2022-08-03T15:48:09.011Z,4.10
2022-08-03T15:50:38.078Z,4.03
2022-08-03T15:53:06.980Z,2.28
2022-08-03T15:55:35.884Z,2.95
2022-08-03T15:59:04.664Z,4.97
2022-08-03T16:00:55.266Z,2.50
2022-08-03T16:03:24.257Z,2.38
2022-08-03T16:05:53.335Z,4.00
2022-08-03T16:08:22.384Z,2.63
2022-08-03T16:10:51.444Z,2.55
2022-08-03T16:13:20.865Z,2.97
2022-08-03T16:15:50.973Z,4.43
2022-08-03T16:18:21.504Z,2.50
2022-08-03T16:20:50.505Z,2.70
2022-08-03T16:23:20.143Z,2.20
2022-08-03T16:25:49.552Z,3.85
2022-08-03T16:28:19.439Z,5.03
2022-08-03T16:30:49.075Z,2.50
2022-08-03T16:33:18.483Z,2.63
2022-08-03T16:35:49.968Z,2.75
2022-08-03T16:38:19.665Z,3.42
2022-08-03T16:40:52.297Z,2.45
2022-08-03T16:43:22.588Z,3.25
2022-08-03T16:45:52.029Z,3.80
2022-08-03T16:48:21.531Z,2.97
2022-08-03T16:50:51.964Z,3.08
2022-08-03T16:53:33.190Z,2.70
2022-08-03T16:56:10.899Z,2.67
2022-08-03T16:58:42.557Z,3.40
2022-08-03T17:01:22.350Z,3.75
2022-08-03T17:04:02.727Z,2.50
2022-08-03T17:06:36.744Z,2.58
2022-08-03T17:09:11.461Z,3.83
2022-08-03T17:11:46.521Z,3.87
2022-08-03T17:14:16.609Z,3.55
2022-08-03T17:16:52.663Z,3.47
2022-08-03T17:19:24.615Z,2.87
2022-08-03T17:22:01.602Z,2.78
2022-08-03T17:24:40.849Z,4.73
2022-08-03T17:28:41.297Z,3.50
2022-08-03T17:30:08.094Z,3.13
2022-08-03T17:32:42.377Z,5.53
2022-08-03T17:35:12.402Z,3.00
2022-08-03T17:37:58.387Z,3.30
2022-08-03T17:40:32.954Z,4.13
2022-08-03T17:44:14.377Z,3.20
2022-08-03T17:45:54.987Z,3.93
2022-08-03T17:48:25.234Z,3.00
2022-08-03T17:50:59.980Z,3.50
2022-08-03T17:53:33.809Z,2.90
2022-08-03T17:56:38.548Z,3.03
2022-08-03T17:59:10.833Z,3.20
2022-08-03T18:02:12.260Z,5.13
2022-08-03T18:04:55.221Z,3.10
2022-08-03T18:07:41.261Z,2.80
2022-08-03T18:10:15.466Z,3.57
2022-08-03T18:12:51.927Z,3.40
2022-08-03T18:15:28.682Z,3.10
2022-08-03T18:18:02.606Z,3.10
2022-08-03T18:20:41.005Z,3.63
2022-08-03T18:23:25.121Z,2.77
2022-08-03T18:26:05.098Z,3.00
2022-08-03T18:28:36.878Z,3.27
2022-08-03T18:31:07.717Z,5.03
2022-08-03T18:34:17.023Z,3.63
2022-08-03T18:36:30.466Z,3.43
2022-08-03T18:39:02.411Z,3.13
2022-08-03T18:41:35.377Z,3.30
2022-08-03T18:44:08.130Z,3.47
2022-08-03T18:47:15.884Z,3.97
2022-08-03T18:49:54.169Z,3.90
2022-08-03T18:52:30.946Z,3.53
2022-08-03T18:55:20.309Z,3.47
2022-08-03T18:58:03.675Z,3.20
2022-08-03T19:00:54.053Z,4.03
2022-08-03T19:03:43.188Z,3.27
2022-08-03T19:06:20.547Z,4.00
2022-08-03T19:08:56.129Z,3.60
2022-08-03T19:11:29.708Z,3.40
2022-08-03T19:14:28.439Z,3.40
2022-08-03T19:17:02.979Z,3.70
2022-08-03T19:19:43.368Z,4.23
2022-08-03T19:22:19.700Z,5.20
2022-08-03T19:24:49.967Z,4.70
2022-08-03T19:27:26.755Z,4.03
2022-08-03T19:30:02.860Z,4.20
2022-08-03T19:32:35.204Z,3.97
2022-08-03T19:35:09.431Z,3.90
2022-08-03T19:37:45.824Z,4.67
2022-08-03T19:40:15.009Z,6.00
2022-08-03T19:42:55.119Z,4.10
2022-08-03T19:45:52.725Z,4.20
2022-08-03T19:48:22.614Z,4.90
2022-08-03T19:50:54.743Z,6.07
2022-08-03T19:53:34.666Z,4.27
2022-08-03T19:56:07.427Z,4.77
2022-08-03T19:58:38.575Z,4.63
2022-08-03T20:01:21.365Z,5.03
2022-08-03T20:03:52.333Z,5.40
2022-08-03T20:06:24.730Z,5.20
2022-08-03T20:08:55.637Z,4.57
2022-08-03T20:11:28.997Z,5.13
2022-08-03T20:14:00.001Z,4.87
2022-08-03T20:16:30.834Z,5.73
2022-08-03T20:19:00.170Z,6.00
2022-08-03T20:21:32.824Z,5.40
2022-08-03T20:24:24.330Z,6.10
2022-08-03T20:26:56.616Z,5.30
2022-08-03T20:30:05.169Z,6.50
2022-08-03T20:35:11.954Z,5.80
2022-08-03T20:37:40.922Z,5.10
2022-08-03T20:40:11.312Z,8.07
2022-08-03T20:42:40.685Z,4.87
2022-08-03T20:45:13.863Z,5.27
2022-08-03T20:47:50.880Z,5.30
2022-08-03T20:50:22.525Z,5.90
2022-08-03T20:52:51.639Z,5.27
2022-08-03T20:55:47.596Z,5.60
2022-08-03T20:58:09.619Z,4.47
2022-08-03T21:00:38.578Z,5.23
2022-08-03T21:03:09.123Z,6.87
2022-08-03T21:05:51.897Z,4.93
2022-08-03T21:08:27.184Z,7.10
2022-08-03T21:11:00.084Z,5.03
2022-08-03T21:13:13.954Z,6.07
2022-08-03T21:13:38.303Z,4.87
2022-08-03T21:16:13.854Z,5.77
2022-08-03T21:18:48.886Z,7.33
2022-08-03T21:21:21.242Z,5.60
2022-08-03T21:23:53.026Z,6.30
2022-08-03T21:26:23.785Z,5.07
2022-08-03T21:28:55.287Z,8.33
2022-08-03T21:31:26.561Z,6.80
2022-08-03T21:33:59.463Z,4.83
2022-08-03T21:36:29.670Z,6.67
2022-08-03T21:38:59.736Z,6.03
2022-08-03T21:41:29.948Z,7.07
2022-08-03T21:43:59.719Z,5.50
2022-08-03T21:46:31.178Z,5.97
2022-08-03T21:50:05.456Z,5.93
2022-08-03T21:51:55.734Z,4.83
2022-08-03T21:54:28.925Z,4.37
2022-08-03T21:57:04.687Z,4.90
2022-08-03T21:59:37.981Z,6.00
2022-08-03T22:02:09.529Z,5.37
2022-08-03T22:04:57.005Z,5.63
2022-08-03T22:07:27.167Z,7.37
2022-08-03T22:09:56.983Z,4.67
2022-08-03T22:12:27.664Z,4.97
2022-08-03T22:15:01.365Z,5.00
2022-08-03T22:17:55.080Z,4.80
2022-08-03T22:20:23.721Z,5.20
2022-08-03T22:22:57.124Z,5.33
2022-08-03T22:25:30.912Z,4.53
2022-08-03T22:28:01.891Z,6.97
2022-08-03T22:30:31.835Z,4.87
2022-08-03T22:33:02.898Z,5.47
2022-08-03T22:35:47.376Z,7.13
2022-08-03T22:38:17.178Z,6.93
2022-08-03T22:40:46.617Z,5.47
2022-08-03T22:43:15.721Z,4.57
2022-08-03T22:46:09.219Z,6.90
2022-08-03T22:48:40.919Z,7.10
2022-08-03T22:51:12.686Z,4.70
2022-08-03T22:53:42.046Z,4.47
2022-08-03T22:56:11.459Z,3.83
2022-08-03T22:58:40.262Z,4.23
2022-08-03T23:01:12.056Z,4.53
2022-08-03T23:03:58.714Z,4.37
2022-08-03T23:06:35.811Z,5.13
2022-08-03T23:09:07.587Z,3.97
2022-08-03T23:11:45.580Z,4.40
2022-08-03T23:14:16.749Z,3.90
2022-08-03T23:16:46.637Z,4.93
2022-08-03T23:19:25.925Z,4.43
2022-08-03T23:22:02.913Z,4.00
2022-08-03T23:24:36.161Z,6.13
2022-08-03T23:27:05.777Z,4.53
2022-08-03T23:29:36.880Z,6.27
2022-08-03T23:32:07.039Z,7.80
2022-08-03T23:34:54.420Z,5.73
2022-08-03T23:37:27.305Z,5.63
2022-08-03T23:39:58.503Z,6.17
2022-08-03T23:42:27.947Z,5.90
2022-08-03T23:45:06.108Z,4.67
2022-08-03T23:47:46.879Z,5.70
2022-08-03T23:50:16.603Z,5.13
2022-08-03T23:52:57.615Z,5.07
2022-08-03T23:55:48.730Z,6.33
2022-08-03T23:58:39.841Z,6.53
